createdAt,value
2023-05-14T00:02:11.778Z,55.34
2023-05-14T00:04:38.457Z,56.05
2023-05-14T00:07:04.924Z,55.71
2023-05-14T00:09:31.966Z,54.89
2023-05-14T00:11:58.442Z,55.74
2023-05-14T00:14:24.760Z,56.27
2023-05-14T00:16:51.165Z,55.94
2023-05-14T00:19:18.099Z,56.88
2023-05-14T00:21:44.490Z,57.56
2023-05-14T00:24:10.890Z,57.12
2023-05-14T00:26:37.243Z,57.47
2023-05-14T00:29:04.209Z,57.37
2023-05-14T00:31:30.880Z,58.55
2023-05-14T00:33:57.279Z,57.49
2023-05-14T00:36:23.657Z,57.70
2023-05-14T00:38:49.994Z,57.80
2023-05-14T00:41:16.317Z,57.71
2023-05-14T00:43:42.687Z,57.51
2023-05-14T00:46:09.154Z,57.76
2023-05-14T00:48:35.605Z,59.45
2023-05-14T00:51:01.977Z,58.10
2023-05-14T00:53:28.486Z,57.82
2023-05-14T00:55:54.829Z,58.47
2023-05-14T00:58:21.197Z,57.86
2023-05-14T01:00:47.728Z,58.51
2023-05-14T01:03:14.260Z,59.04
2023-05-14T01:06:00.902Z,59.57
2023-05-14T01:08:40.743Z,60.20
2023-05-14T01:11:08.188Z,60.41
2023-05-14T01:13:38.906Z,60.62
2023-05-14T01:16:05.793Z,60.30
2023-05-14T01:18:32.356Z,59.82
2023-05-14T01:20:58.728Z,60.25
2023-05-14T01:23:25.057Z,59.98
2023-05-14T01:25:51.512Z,60.34
2023-05-14T01:28:20.919Z,61.08
2023-05-14T01:30:50.548Z,60.82
2023-05-14T01:33:18.291Z,61.35
2023-05-14T01:35:44.750Z,61.79
2023-05-14T01:38:12.103Z,61.84
2023-05-14T01:40:38.690Z,62.40
2023-05-14T01:43:05.213Z,62.80
2023-05-14T01:45:31.834Z,61.83
2023-05-14T01:47:58.327Z,61.41
2023-05-14T01:50:24.885Z,61.79
2023-05-14T01:52:53.456Z,61.85
2023-05-14T01:55:19.912Z,61.63
2023-05-14T01:57:46.252Z,62.39
2023-05-14T02:00:12.852Z,63.43
2023-05-14T02:02:39.218Z,62.72
2023-05-14T02:05:07.065Z,62.33
2023-05-14T02:07:33.686Z,62.38
2023-05-14T02:10:00.139Z,62.37
2023-05-14T02:12:26.699Z,61.90
2023-05-14T02:14:53.033Z,62.23
2023-05-14T02:17:19.791Z,61.60
2023-05-14T02:19:46.287Z,62.48
2023-05-14T02:22:12.794Z,63.46
2023-05-14T02:24:39.228Z,63.29
2023-05-14T02:27:06.279Z,63.01
2023-05-14T02:29:32.647Z,63.31
2023-05-14T02:31:59.100Z,63.34
2023-05-14T02:34:25.977Z,64.53
2023-05-14T02:36:52.310Z,63.98
2023-05-14T02:39:18.660Z,63.91
2023-05-14T02:41:45.023Z,65.18
2023-05-14T02:44:11.341Z,64.92
2023-05-14T02:46:37.747Z,66.28
2023-05-14T02:49:04.133Z,66.26
2023-05-14T02:51:30.519Z,67.00
2023-05-14T02:53:56.893Z,67.30
2023-05-14T02:56:23.226Z,67.04
2023-05-14T02:58:49.581Z,67.05
2023-05-14T03:01:16.347Z,67.15
2023-05-14T03:03:43.372Z,67.27
2023-05-14T03:06:10.290Z,67.41
2023-05-14T03:08:36.708Z,67.43
2023-05-14T03:11:03.149Z,67.21
2023-05-14T03:13:29.518Z,66.90
2023-05-14T03:15:56.905Z,67.39
2023-05-14T03:18:23.308Z,68.13
2023-05-14T03:20:49.658Z,68.37
2023-05-14T03:23:16.013Z,68.37
2023-05-14T03:25:42.340Z,68.21
2023-05-14T03:28:08.825Z,68.62
2023-05-14T03:30:35.397Z,68.65
2023-05-14T03:33:01.896Z,67.51
2023-05-14T03:35:28.304Z,67.15
2023-05-14T03:37:54.768Z,67.13
2023-05-14T03:40:21.518Z,67.64
2023-05-14T03:42:48.115Z,67.05
2023-05-14T03:45:14.540Z,67.37
2023-05-14T03:47:41.430Z,66.74
2023-05-14T03:50:08.495Z,66.44
2023-05-14T03:52:34.886Z,66.93
2023-05-14T03:55:01.216Z,66.75
2023-05-14T03:57:28.761Z,66.72
2023-05-14T03:59:55.093Z,66.65
2023-05-14T04:02:21.501Z,66.39
2023-05-14T04:04:47.954Z,66.52
2023-05-14T04:07:14.424Z,66.44
2023-05-14T04:09:40.836Z,65.60
2023-05-14T04:12:07.538Z,65.53
2023-05-14T04:14:33.899Z,65.66
2023-05-14T04:17:00.643Z,65.07
2023-05-14T04:19:27.064Z,64.60
2023-05-14T04:21:53.435Z,64.26
2023-05-14T04:24:19.743Z,64.25
2023-05-14T04:26:46.098Z,64.72
2023-05-14T04:29:12.487Z,63.63
2023-05-14T04:31:39.662Z,63.99
2023-05-14T04:34:06.064Z,64.59
2023-05-14T04:36:32.474Z,64.91
2023-05-14T04:38:58.837Z,65.10
2023-05-14T04:41:25.334Z,64.37
2023-05-14T04:43:51.752Z,65.41
2023-05-14T04:46:18.212Z,63.91
2023-05-14T04:48:44.609Z,63.07
2023-05-14T04:51:10.985Z,62.46
2023-05-14T04:53:37.330Z,62.86
2023-05-14T04:56:03.673Z,63.27
2023-05-14T04:58:34.545Z,63.37
2023-05-14T05:01:02.744Z,64.15
2023-05-14T05:03:29.491Z,64.03
2023-05-14T05:05:55.934Z,64.07
2023-05-14T05:08:22.323Z,63.59
2023-05-14T05:10:48.687Z,63.76
2023-05-14T05:13:16.971Z,63.62
2023-05-14T05:15:43.669Z,64.10
2023-05-14T05:18:10.152Z,62.95
2023-05-14T05:20:36.542Z,64.16
2023-05-14T05:23:03.220Z,63.46
2023-05-14T05:25:29.678Z,62.65
2023-05-14T05:27:56.164Z,62.09
2023-05-14T05:30:22.808Z,62.83
2023-05-14T05:32:49.378Z,61.41
2023-05-14T05:35:15.786Z,60.92
2023-05-14T05:37:42.998Z,59.61
2023-05-14T05:40:10.215Z,57.39
2023-05-14T05:42:36.614Z,57.16
2023-05-14T05:45:03.078Z,57.38
2023-05-14T05:47:30.118Z,56.59
2023-05-14T05:49:56.958Z,56.71
2023-05-14T05:52:23.306Z,55.28
2023-05-14T05:54:49.631Z,54.90
2023-05-14T05:57:16.049Z,54.56
2023-05-14T05:59:42.382Z,54.92
2023-05-14T06:02:08.831Z,54.11
2023-05-14T06:04:35.271Z,53.95
2023-05-14T06:07:01.612Z,53.79
2023-05-14T06:09:27.938Z,54.62
2023-05-14T06:11:54.361Z,54.57
2023-05-14T06:14:20.689Z,53.16
2023-05-14T06:16:47.103Z,53.27
2023-05-14T06:19:13.710Z,52.49
2023-05-14T06:21:40.302Z,50.65
2023-05-14T06:24:06.792Z,50.54
2023-05-14T06:26:33.237Z,50.15
2023-05-14T06:28:59.617Z,50.04
2023-05-14T06:31:26.320Z,50.67
2023-05-14T06:33:52.716Z,48.79
2023-05-14T06:36:19.059Z,47.74
2023-05-14T06:38:45.418Z,47.43
2023-05-14T06:41:12.090Z,48.48
2023-05-14T06:43:38.456Z,48.55
2023-05-14T06:46:04.817Z,48.14
2023-05-14T06:48:31.244Z,49.22
2023-05-14T06:50:57.702Z,45.98
2023-05-14T06:53:24.071Z,45.06
2023-05-14T06:55:50.889Z,44.90
2023-05-14T06:58:17.270Z,44.26
2023-05-14T07:00:43.682Z,43.85
2023-05-14T07:03:10.143Z,42.64
2023-05-14T07:05:37.825Z,43.85
2023-05-14T07:08:04.210Z,43.53
2023-05-14T07:10:30.957Z,44.40
2023-05-14T07:12:57.346Z,42.83
2023-05-14T07:15:23.716Z,42.05
2023-05-14T07:17:50.196Z,41.63
2023-05-14T07:20:16.605Z,41.01
2023-05-14T07:22:43.020Z,38.86
2023-05-14T07:25:09.550Z,40.05
2023-05-14T07:27:35.927Z,40.68
2023-05-14T07:30:02.321Z,40.42
2023-05-14T07:32:28.747Z,42.34
2023-05-14T07:34:55.096Z,41.00
2023-05-14T07:37:24.115Z,39.77
2023-05-14T07:39:50.863Z,42.08
2023-05-14T07:42:28.359Z,41.34
2023-05-14T07:45:01.410Z,38.14
2023-05-14T07:47:27.849Z,38.75
2023-05-14T07:49:54.635Z,39.75
2023-05-14T07:52:21.041Z,37.99
2023-05-14T07:54:48.867Z,38.66
2023-05-14T07:57:16.417Z,40.14
2023-05-14T07:59:42.831Z,37.47
2023-05-14T08:02:10.648Z,36.76
2023-05-14T08:04:37.126Z,37.73
2023-05-14T08:07:04.389Z,38.47
2023-05-14T08:09:30.731Z,36.26
2023-05-14T08:11:57.585Z,35.87
2023-05-14T08:14:24.040Z,36.24
2023-05-14T08:16:50.488Z,35.38
2023-05-14T08:19:16.971Z,35.81
2023-05-14T08:21:43.543Z,35.91
2023-05-14T08:24:09.984Z,36.53
2023-05-14T08:26:36.352Z,36.19
2023-05-14T08:29:02.693Z,35.92
2023-05-14T08:31:29.272Z,35.92
2023-05-14T08:33:55.793Z,37.25
2023-05-14T08:36:25.076Z,37.44
2023-05-14T08:38:51.497Z,36.45
2023-05-14T08:41:17.862Z,36.73
2023-05-14T08:43:48.157Z,34.91
2023-05-14T08:46:15.238Z,37.06
2023-05-14T08:48:42.349Z,36.04
2023-05-14T08:51:09.136Z,36.18
2023-05-14T08:53:35.669Z,35.66
2023-05-14T08:56:02.309Z,35.63
2023-05-14T08:58:28.916Z,36.02
2023-05-14T09:00:56.258Z,34.67
2023-05-14T09:03:23.171Z,32.47
2023-05-14T09:05:49.680Z,32.24
2023-05-14T09:08:15.993Z,31.72
2023-05-14T09:10:42.461Z,31.50
2023-05-14T09:13:10.146Z,30.33
2023-05-14T09:15:37.210Z,30.50
2023-05-14T09:18:07.048Z,29.88
2023-05-14T09:20:33.490Z,29.41
2023-05-14T09:23:02.818Z,30.36
2023-05-14T09:25:32.248Z,30.61
2023-05-14T09:27:59.034Z,29.37
2023-05-14T09:30:26.549Z,30.41
2023-05-14T09:32:53.662Z,29.69
2023-05-14T09:35:22.462Z,29.87
2023-05-14T09:37:52.831Z,30.74
2023-05-14T09:40:20.721Z,28.43
2023-05-14T09:42:48.296Z,28.05
2023-05-14T09:45:15.098Z,28.03
2023-05-14T09:47:41.714Z,28.13
2023-05-14T09:50:08.477Z,27.74
2023-05-14T09:52:35.088Z,28.48
2023-05-14T09:55:01.621Z,29.82
2023-05-14T09:57:28.253Z,28.79
2023-05-14T09:59:54.608Z,28.85
2023-05-14T10:02:25.130Z,28.05
2023-05-14T10:04:53.166Z,26.69
2023-05-14T10:07:23.112Z,27.10
2023-05-14T10:09:50.451Z,26.86
2023-05-14T10:12:16.947Z,27.29
2023-05-14T10:14:44.720Z,26.48
2023-05-14T10:17:18.506Z,27.32
2023-05-14T10:19:49.908Z,28.66
2023-05-14T10:22:18.672Z,29.02
2023-05-14T10:24:46.022Z,29.26
2023-05-14T10:27:12.373Z,29.39
2023-05-14T10:29:38.805Z,31.69
2023-05-14T10:32:07.905Z,31.78
2023-05-14T10:34:37.541Z,30.43
2023-05-14T10:37:22.869Z,31.48
2023-05-14T10:39:53.720Z,31.39
2023-05-14T10:42:23.242Z,31.90
2023-05-14T10:44:49.611Z,30.66
2023-05-14T10:47:17.073Z,29.62
2023-05-14T10:49:44.168Z,31.12
2023-05-14T10:52:10.836Z,31.57
2023-05-14T10:54:37.175Z,31.90
2023-05-14T10:57:03.755Z,31.02
2023-05-14T10:59:30.151Z,33.69
2023-05-14T11:01:59.377Z,34.75
2023-05-14T11:04:26.772Z,33.85
2023-05-14T11:06:53.116Z,34.05
2023-05-14T11:09:19.425Z,34.53
2023-05-14T11:11:47.663Z,35.13
2023-05-14T11:14:14.051Z,35.89
2023-05-14T11:16:41.402Z,36.33
2023-05-14T11:19:07.890Z,36.78
2023-05-14T11:21:34.400Z,37.07
2023-05-14T11:24:00.966Z,37.24
2023-05-14T11:26:27.341Z,37.88
2023-05-14T11:28:53.698Z,36.90
2023-05-14T11:31:21.488Z,36.69
2023-05-14T11:33:47.887Z,36.38
2023-05-14T11:36:14.725Z,33.50
2023-05-14T11:38:48.814Z,33.96
2023-05-14T11:41:16.039Z,32.90
2023-05-14T11:43:42.516Z,33.07
2023-05-14T11:46:08.934Z,32.80
2023-05-14T11:48:35.525Z,32.71
2023-05-14T11:51:01.905Z,31.91
2023-05-14T11:53:29.349Z,31.45
2023-05-14T11:55:57.731Z,31.50
2023-05-14T11:58:24.196Z,32.03
2023-05-14T12:00:50.843Z,32.22
2023-05-14T12:03:23.503Z,31.40
2023-05-14T12:05:58.226Z,31.13
2023-05-14T12:08:27.606Z,32.47
2023-05-14T12:10:54.017Z,32.08
2023-05-14T12:13:20.463Z,32.39
2023-05-14T12:15:56.947Z,33.71
2023-05-14T12:18:30.360Z,34.46
2023-05-14T12:21:00.214Z,35.67
2023-05-14T12:23:27.178Z,35.43
2023-05-14T12:25:53.559Z,34.39
2023-05-14T12:28:20.186Z,34.29
2023-05-14T12:30:47.234Z,33.38
2023-05-14T12:33:14.733Z,32.50
2023-05-14T12:35:41.178Z,31.33
2023-05-14T12:38:07.870Z,32.22
2023-05-14T12:40:34.248Z,30.40
2023-05-14T12:43:00.616Z,29.96
2023-05-14T12:45:26.953Z,31.33
2023-05-14T12:47:53.396Z,31.98
2023-05-14T12:50:20.385Z,32.67
2023-05-14T12:52:46.775Z,32.77
2023-05-14T12:55:13.156Z,32.68
2023-05-14T12:57:39.671Z,32.81
2023-05-14T13:00:07.894Z,32.75
2023-05-14T13:02:42.685Z,33.34
2023-05-14T13:05:09.948Z,33.91
2023-05-14T13:07:36.415Z,34.24
2023-05-14T13:10:05.495Z,34.92
2023-05-14T13:12:32.253Z,33.77
2023-05-14T13:14:58.688Z,35.41
2023-05-14T13:17:25.034Z,34.31
2023-05-14T13:19:51.436Z,34.09
2023-05-14T13:22:18.883Z,34.03
2023-05-14T13:24:46.285Z,34.69
2023-05-14T13:27:12.719Z,35.02
2023-05-14T13:29:39.179Z,35.70
2023-05-14T13:32:05.713Z,35.61
2023-05-14T13:34:32.063Z,35.15
2023-05-14T13:36:58.477Z,35.24
2023-05-14T13:39:27.074Z,35.72
2023-05-14T13:41:57.003Z,34.81
2023-05-14T13:44:23.555Z,34.80
2023-05-14T13:46:50.016Z,34.08
2023-05-14T13:49:16.404Z,33.91
2023-05-14T13:51:42.755Z,34.24
2023-05-14T13:54:09.092Z,32.99
2023-05-14T13:56:35.554Z,33.32
2023-05-14T13:59:01.993Z,33.89
2023-05-14T14:01:30.635Z,35.10
2023-05-14T14:03:57.119Z,35.93
2023-05-14T14:06:23.531Z,36.54
2023-05-14T14:08:49.874Z,36.80
2023-05-14T14:11:16.936Z,36.23
2023-05-14T14:13:45.196Z,36.27
2023-05-14T14:16:12.863Z,35.33
2023-05-14T14:18:39.390Z,35.60
2023-05-14T14:21:06.224Z,35.71
2023-05-14T14:23:32.622Z,34.13
2023-05-14T14:25:59.127Z,34.21
2023-05-14T14:28:25.710Z,34.25
2023-05-14T14:30:52.132Z,34.25
2023-05-14T14:33:18.487Z,34.96
2023-05-14T14:35:44.976Z,34.94
2023-05-14T14:38:11.303Z,34.90
2023-05-14T14:40:37.677Z,35.11
2023-05-14T14:43:04.083Z,35.48
2023-05-14T14:45:30.573Z,35.45
2023-05-14T14:48:15.585Z,35.28
2023-05-14T14:50:41.967Z,35.52
2023-05-14T14:53:08.373Z,35.64
2023-05-14T14:55:34.760Z,35.21
2023-05-14T14:58:01.099Z,36.28
2023-05-14T15:00:27.455Z,36.61
2023-05-14T15:02:53.947Z,36.32
2023-05-14T15:05:20.283Z,36.15
2023-05-14T15:07:46.661Z,36.55
2023-05-14T15:10:13.133Z,36.68
2023-05-14T15:12:39.478Z,37.18
2023-05-14T15:15:06.782Z,37.13
2023-05-14T15:17:33.273Z,36.47
2023-05-14T15:19:59.630Z,35.88
2023-05-14T15:22:25.965Z,35.98
2023-05-14T15:24:52.468Z,35.99
2023-05-14T15:27:18.800Z,36.32
2023-05-14T15:29:45.442Z,36.17
2023-05-14T15:32:11.791Z,35.90
2023-05-14T15:34:38.146Z,36.27
2023-05-14T15:37:04.533Z,36.01
2023-05-14T15:39:31.553Z,35.88
2023-05-14T15:41:57.879Z,36.09
2023-05-14T15:44:24.216Z,36.57
2023-05-14T15:46:50.758Z,36.21
2023-05-14T15:49:17.372Z,35.75
2023-05-14T15:51:43.705Z,35.86
2023-05-14T15:54:10.248Z,36.28
2023-05-14T15:56:36.704Z,37.37
2023-05-14T15:59:03.218Z,37.33
2023-05-14T16:01:29.659Z,37.32
2023-05-14T16:03:56.230Z,36.91
2023-05-14T16:06:22.917Z,37.36
2023-05-14T16:08:49.741Z,36.84
2023-05-14T16:11:16.079Z,36.97
2023-05-14T16:13:42.573Z,36.82
2023-05-14T16:16:09.055Z,36.36
2023-05-14T16:18:35.605Z,35.80
2023-05-14T16:21:02.052Z,35.30
2023-05-14T16:23:28.504Z,35.26
2023-05-14T16:25:54.834Z,36.08
2023-05-14T16:28:21.263Z,36.09
2023-05-14T16:30:47.637Z,35.57
2023-05-14T16:33:14.072Z,36.03
2023-05-14T16:35:40.453Z,36.54
2023-05-14T16:38:06.833Z,36.32
2023-05-14T16:40:33.210Z,35.76
2023-05-14T16:43:01.419Z,35.58
2023-05-14T16:45:27.980Z,36.17
2023-05-14T16:47:54.343Z,36.11
2023-05-14T16:50:20.963Z,36.94
2023-05-14T16:52:47.348Z,36.66
2023-05-14T16:55:13.695Z,37.04
2023-05-14T16:57:40.051Z,36.87
2023-05-14T17:00:06.705Z,37.25
2023-05-14T17:02:33.664Z,36.88
2023-05-14T17:05:00.310Z,37.18
2023-05-14T17:07:26.804Z,37.98
2023-05-14T17:09:53.187Z,38.25
2023-05-14T17:12:21.612Z,39.29
2023-05-14T17:14:48.487Z,38.99
2023-05-14T17:17:14.825Z,39.37
2023-05-14T17:19:41.249Z,39.58
2023-05-14T17:22:07.684Z,39.23
2023-05-14T17:24:35.417Z,39.40
2023-05-14T17:27:01.774Z,39.41
2023-05-14T17:29:28.144Z,39.59
2023-05-14T17:31:54.665Z,39.56
2023-05-14T17:34:21.126Z,39.91
2023-05-14T17:36:47.516Z,40.55
2023-05-14T17:39:13.896Z,40.09
2023-05-14T17:41:42.015Z,40.28
2023-05-14T17:44:09.804Z,40.44
2023-05-14T17:46:37.058Z,40.65
2023-05-14T17:49:03.530Z,40.52
2023-05-14T17:51:29.992Z,40.45
2023-05-14T17:53:56.303Z,40.64
2023-05-14T17:56:24.949Z,41.12
2023-05-14T17:58:51.364Z,40.71
2023-05-14T18:01:17.779Z,40.70
2023-05-14T18:03:44.300Z,40.61
2023-05-14T18:06:10.841Z,40.96
2023-05-14T18:08:37.197Z,41.11
2023-05-14T18:11:03.639Z,41.68
2023-05-14T18:13:30.039Z,41.20
2023-05-14T18:15:56.524Z,41.74
2023-05-14T18:18:23.929Z,41.92
2023-05-14T18:20:51.948Z,42.42
2023-05-14T18:23:18.433Z,42.53
2023-05-14T18:25:44.853Z,42.99
2023-05-14T18:28:11.303Z,42.78
2023-05-14T18:30:37.666Z,43.30
2023-05-14T18:33:04.056Z,43.73
2023-05-14T18:35:30.861Z,44.60
2023-05-14T18:37:57.213Z,44.16
2023-05-14T18:40:23.531Z,44.67
2023-05-14T18:42:49.959Z,44.53
2023-05-14T18:45:16.414Z,44.99
2023-05-14T18:47:42.862Z,44.67
2023-05-14T18:50:09.389Z,45.27
2023-05-14T18:52:35.821Z,45.95
2023-05-14T18:55:02.172Z,45.84
2023-05-14T18:57:34.669Z,45.58
2023-05-14T19:00:05.117Z,46.40
2023-05-14T19:02:31.608Z,46.98
2023-05-14T19:04:58.067Z,47.29
2023-05-14T19:07:24.521Z,47.43
2023-05-14T19:09:51.358Z,48.16
2023-05-14T19:12:17.718Z,48.45
2023-05-14T19:14:44.039Z,48.88
2023-05-14T19:17:10.919Z,48.58
2023-05-14T19:19:37.813Z,49.93
2023-05-14T19:22:04.250Z,49.46
2023-05-14T19:24:30.612Z,50.19
2023-05-14T19:26:56.970Z,49.65
2023-05-14T19:29:24.939Z,50.15
2023-05-14T19:31:51.337Z,50.81
2023-05-14T19:34:17.730Z,50.81
2023-05-14T19:36:46.581Z,51.16
2023-05-14T19:39:13.050Z,51.41
2023-05-14T19:41:39.496Z,51.37
2023-05-14T19:44:06.020Z,51.58
2023-05-14T19:46:33.028Z,52.04
2023-05-14T19:48:59.947Z,51.94
2023-05-14T19:51:28.692Z,52.84
2023-05-14T19:53:58.406Z,52.79
2023-05-14T19:56:26.539Z,53.09
2023-05-14T19:58:54.519Z,53.31
2023-05-14T20:01:20.984Z,52.29
2023-05-14T20:03:47.996Z,53.03
2023-05-14T20:06:15.374Z,53.32
2023-05-14T20:08:41.803Z,52.74
2023-05-14T20:11:11.016Z,53.72
2023-05-14T20:13:38.434Z,52.68
2023-05-14T20:16:04.924Z,53.81
2023-05-14T20:18:33.840Z,54.81
2023-05-14T20:21:01.007Z,54.74
2023-05-14T20:23:27.429Z,54.06
2023-05-14T20:25:53.838Z,53.57
2023-05-14T20:28:20.478Z,55.03
2023-05-14T20:30:47.216Z,55.13
2023-05-14T20:33:16.392Z,54.14
2023-05-14T20:35:47.438Z,54.59
2023-05-14T20:38:19.344Z,53.81
2023-05-14T20:40:46.569Z,54.21
2023-05-14T20:43:14.354Z,54.70
2023-05-14T20:45:41.166Z,55.02
2023-05-14T20:48:10.042Z,55.50
2023-05-14T20:50:36.714Z,55.78
2023-05-14T20:53:03.991Z,56.76
2023-05-14T20:55:30.553Z,56.38
2023-05-14T20:57:56.962Z,56.89
2023-05-14T21:00:23.434Z,56.47
2023-05-14T21:02:50.742Z,56.06
2023-05-14T21:05:17.397Z,56.45
2023-05-14T21:07:43.996Z,55.84
2023-05-14T21:10:10.608Z,55.84
2023-05-14T21:12:37.032Z,56.75
2023-05-14T21:15:03.576Z,57.47
2023-05-14T21:17:30.148Z,56.66
2023-05-14T21:19:56.838Z,56.94
2023-05-14T21:22:23.415Z,57.37
2023-05-14T21:24:50.124Z,57.01
2023-05-14T21:27:16.506Z,56.66
2023-05-14T21:29:44.816Z,56.32
2023-05-14T21:32:11.210Z,57.59
2023-05-14T21:34:37.523Z,57.16
2023-05-14T21:37:03.958Z,57.57
2023-05-14T21:39:30.322Z,57.35
2023-05-14T21:41:56.653Z,57.10
2023-05-14T21:44:23.021Z,56.87
2023-05-14T21:46:49.354Z,57.24
2023-05-14T21:49:15.667Z,57.35
2023-05-14T21:51:42.850Z,57.93
2023-05-14T21:54:09.592Z,57.85
2023-05-14T21:56:36.403Z,56.97
2023-05-14T21:59:03.010Z,57.28
2023-05-14T22:01:29.417Z,57.56
2023-05-14T22:03:57.734Z,57.87
2023-05-14T22:06:24.438Z,59.11
2023-05-14T22:08:50.762Z,58.39
2023-05-14T22:11:22.770Z,58.17
2023-05-14T22:13:49.936Z,58.28
2023-05-14T22:16:16.465Z,56.98
2023-05-14T22:18:43.082Z,58.26
2023-05-14T22:21:09.506Z,57.58
2023-05-14T22:23:36.162Z,58.13
2023-05-14T22:26:02.494Z,58.56
2023-05-14T22:28:28.858Z,58.13
2023-05-14T22:30:56.443Z,59.39
2023-05-14T22:33:22.926Z,59.31
2023-05-14T22:35:49.272Z,58.85
2023-05-14T22:38:15.882Z,59.16
2023-05-14T22:40:42.227Z,58.92
2023-05-14T22:43:08.717Z,59.08
2023-05-14T22:45:35.067Z,58.94
2023-05-14T22:48:01.596Z,58.66
2023-05-14T22:50:28.147Z,58.56
2023-05-14T22:52:54.483Z,58.94
2023-05-14T22:55:21.172Z,59.31
2023-05-14T22:57:47.589Z,59.72
2023-05-14T23:00:14.495Z,59.66
2023-05-14T23:02:41.028Z,60.31
2023-05-14T23:05:10.262Z,59.78
2023-05-14T23:07:36.622Z,60.37
2023-05-14T23:10:02.987Z,59.64
2023-05-14T23:12:29.357Z,60.02
2023-05-14T23:14:55.797Z,60.51
2023-05-14T23:17:22.231Z,60.61
2023-05-14T23:19:48.673Z,59.84
2023-05-14T23:22:15.165Z,59.53
2023-05-14T23:24:41.548Z,60.55
2023-05-14T23:27:07.912Z,60.04
2023-05-14T23:29:34.290Z,59.91
2023-05-14T23:32:00.737Z,59.47
2023-05-14T23:34:27.190Z,59.82
2023-05-14T23:36:53.545Z,59.20
2023-05-14T23:39:19.866Z,59.86
2023-05-14T23:41:46.279Z,60.40
2023-05-14T23:44:12.725Z,60.13
2023-05-14T23:46:39.080Z,59.92
2023-05-14T23:49:05.784Z,59.74
2023-05-14T23:51:32.236Z,60.25
2023-05-14T23:53:58.842Z,60.02
2023-05-14T23:56:26.159Z,60.63
2023-05-14T23:58:52.592Z,61.17
